Carnival Victory — 3FFL8 — position and weather

sailwx.info

Track history (hours):
 
Tides and Currents Weather Stations Pressure Air Temp Water Temp Dewpoint Dewpoint Depression Visibility Wind Speed Wind Dir Waves Ship Positions

Carnival Victory

Operator: Carnival Cruise Lines

Last reported at 2017-Jul-24 02:30 UTC. Time now 2017-Jul-24 02:32 UTC.
Position N 26°15' W 079°12'.

Type: Passenger vessel. MMSI: 355263000.

Date/timePositionNaut miles runAvg speedWind from/ knotsBaromVisibWave heightAir tempDewpointWater temp
2017-Jul-24 02:30N 26°15' W 079°12'108 2.7
2017-Jul-22 11:00N 25°30' W 077°24'8111.1 290 / 201018.9 5.4 28.023.929.0
2017-Jul-22 03:42N 26°13' W 078°41'213.2
2017-Jul-22 03:30N 26°13' W 078°43'713.8
2017-Jul-22 03:00N 26°15' W 078°51'713.7
2017-Jul-22 02:30N 26°17' W 078°58'713.5
2017-Jul-22 02:00N 26°18' W 079°06'713.3
2017-Jul-22 01:30N 26°15' W 079°12'713.7
2017-Jul-22 01:00N 26°12' W 079°19'713.9
2017-Jul-22 00:30N 26°08' W 079°25'714.4
2017-Jul-22 00:00N 26°04' W 079°32'714.2
2017-Jul-21 23:30N 25°60' W 079°38'713.8
2017-Jul-21 23:00N 25°56' W 079°45'714.2
2017-Jul-21 22:30N 25°53' W 079°52'714.6
2017-Jul-21 22:01N 25°49' W 079°59'612.0
2017-Jul-21 21:30N 25°46' W 080°05'5 9.0
2017-Jul-21 21:00N 25°46' W 080°10'1 1.1
2017-Jul-21 20:30N 25°47' W 080°10'0 0.0
2017-Jul-21 20:00N 25°47' W 080°10'0 0.0
2017-Jul-21 19:30N 25°47' W 080°10'0 0.0
2017-Jul-21 19:00N 25°47' W 080°10'0 0.0
2017-Jul-21 18:30N 25°47' W 080°10'0 0.0
2017-Jul-21 18:00N 25°47' W 080°10'0 0.0
2017-Jul-21 17:30N 25°47' W 080°10'0 0.0
2017-Jul-21 16:54N 25°47' W 080°10'0 0.0
2017-Jul-21 16:30N 25°47' W 080°10'0 0.0
2017-Jul-21 15:54N 25°47' W 080°10'0 0.0
2017-Jul-21 15:30N 25°47' W 080°10'0 0.0
2017-Jul-21 14:54N 25°47' W 080°10'0 0.0
2017-Jul-21 14:30N 25°47' W 080°10'0 0.0
2017-Jul-21 14:00N 25°47' W 080°10'0 0.0
2017-Jul-21 13:30N 25°47' W 080°10'0 0.0
2017-Jul-21 13:00N 25°47' W 080°10'0 0.0
2017-Jul-21 12:30N 25°47' W 080°10'0 0.0
2017-Jul-21 11:57N 25°47' W 080°10'0 0.0
2017-Jul-21 11:30N 25°47' W 080°10'0 0.0
2017-Jul-21 10:57N 25°47' W 080°10'1 1.2
2017-Jul-21 10:30N 25°46' W 080°10'4 8.7
2017-Jul-21 10:00N 25°46' W 080°05'5 9.9
2017-Jul-21 09:31N 25°46' W 079°59'611.9
2017-Jul-21 09:00N 25°41' W 079°56'816.3
2017-Jul-21 08:30N 25°33' W 079°55'816.5
2017-Jul-21 08:00N 25°24' W 079°55'714.6
2017-Jul-21 07:30N 25°17' W 079°56'33916.5
2017-Jul-20 11:00N 22°12' W 085°06'13417.5 180 / 181017.610.8 29.025.030.0
2017-Jul-20 03:19N 20°42' W 086°53'617.9
2017-Jul-20 03:00N 20°38' W 086°57'815.6
2017-Jul-20 02:31N 20°30' W 086°59'2 3.3
2017-Jul-20 01:57N 20°29' W 086°59'0 0.0
2017-Jul-20 01:30N 20°29' W 086°59'0 0.0
2017-Jul-20 01:00N 20°29' W 086°59'0 0.0
2017-Jul-20 00:27N 20°29' W 086°59'0 0.0
2017-Jul-20 00:00N 20°29' W 086°59'0 0.0
2017-Jul-19 23:30N 20°29' W 086°59'0 0.0
2017-Jul-19 23:00N 20°29' W 086°59'0 0.0
2017-Jul-19 22:30N 20°29' W 086°59'0 0.0
2017-Jul-19 22:00N 20°29' W 086°59'0 0.0
2017-Jul-19 21:30N 20°29' W 086°59'0 0.0
2017-Jul-19 21:00N 20°29' W 086°59'0 0.0
2017-Jul-19 20:30N 20°29' W 086°59'0 0.0
2017-Jul-19 20:00N 20°29' W 086°59'0 0.0
2017-Jul-19 19:30N 20°29' W 086°59'0 0.0
2017-Jul-19 19:00N 20°29' W 086°59'0 0.0
2017-Jul-19 18:30N 20°29' W 086°59'0 0.0
2017-Jul-19 18:00N 20°29' W 086°59'0 0.0
2017-Jul-19 17:30N 20°29' W 086°59'0 0.0
2017-Jul-19 17:00N 20°29' W 086°59'0 0.0
2017-Jul-19 16:30N 20°29' W 086°59'0 0.0
2017-Jul-19 16:00N 20°29' W 086°59'0 0.0
2017-Jul-19 15:30N 20°29' W 086°59'1 2.4
2017-Jul-19 15:00N 20°30' W 086°59'4 7.7
2017-Jul-19 14:30N 20°33' W 087°00'6819.5
2017-Jul-19 11:00N 21°12' W 086°00'8216.4 340 / 181016.310.8 29.025.030.0
2017-Jul-19 06:00N 22°12' W 085°00'33311.3 350 / 171018.010.8 28.523.731.0
2017-Jul-18 00:35N 25°09' W 079°52'112.7
2017-Jul-18 00:29N 25°10' W 079°52'612.9
2017-Jul-18 00:00N 25°16' W 079°48'612.9
2017-Jul-17 23:30N 25°22' W 079°48'612.9
2017-Jul-17 23:00N 25°28' W 079°47'612.8
2017-Jul-17 22:30N 25°35' W 079°47'713.6
2017-Jul-17 22:00N 25°39' W 079°53'714.3
2017-Jul-17 21:30N 25°43' W 079°59'611.2
2017-Jul-17 21:00N 25°46' W 080°05'5 9.2
2017-Jul-17 20:30N 25°47' W 080°10'0 0.2
2017-Jul-17 19:59N 25°47' W 080°10'0 0.0
2017-Jul-17 19:29N 25°47' W 080°10'0 0.0
2017-Jul-17 18:59N 25°47' W 080°10'0 0.0
2017-Jul-17 18:29N 25°47' W 080°10'0 0.0
2017-Jul-17 17:59N 25°47' W 080°10'0 0.0
2017-Jul-17 17:29N 25°47' W 080°10'0 0.0
2017-Jul-17 16:59N 25°47' W 080°10'0 0.0
2017-Jul-17 16:26N 25°47' W 080°10'0 0.0
2017-Jul-17 15:53N 25°47' W 080°10'0 0.0
2017-Jul-17 15:29N 25°47' W 080°10'0 0.0
2017-Jul-17 14:56N 25°47' W 080°10'0 0.0
2017-Jul-17 14:29N 25°47' W 080°10'0 0.0
2017-Jul-17 13:53N 25°47' W 080°10'0 0.0
2017-Jul-17 13:23N 25°47' W 080°10'0 0.0
2017-Jul-17 12:56N 25°47' W 080°10'0 0.0
2017-Jul-17 12:29N 25°47' W 080°10'0 0.0
2017-Jul-17 11:56N 25°47' W 080°10'0 0.0
2017-Jul-17 11:26N 25°47' W 080°10'0 0.0
2017-Jul-17 10:56N 25°47' W 080°10'0 0.7
2017-Jul-17 10:30N 25°47' W 080°10'1 1.9
2017-Jul-17 10:00N 25°46' W 080°09'5 9.3
2017-Jul-17 09:30N 25°46' W 080°04'4 8.4
2017-Jul-17 09:00N 25°48' W 080°00'4 7.5
2017-Jul-17 08:30N 25°50' W 079°57'4 8.7
2017-Jul-17 08:00N 25°52' W 079°52'4 8.3
2017-Jul-17 07:30N 25°55' W 079°49'4 7.8
2017-Jul-17 07:00N 25°57' W 079°45'4 8.0
2017-Jul-17 06:30N 25°58' W 079°41'4 7.4
2017-Jul-17 06:00N 26°01' W 079°38'3 6.9
2017-Jul-17 05:30N 26°03' W 079°35'4 7.5
2017-Jul-17 05:00N 26°05' W 079°31'4 7.5
2017-Jul-17 04:30N 26°07' W 079°28'4 7.8
2017-Jul-17 04:00N 26°09' W 079°24'4 8.4
2017-Jul-17 03:30N 26°11' W 079°20'4 8.6
2017-Jul-17 03:00N 26°13' W 079°16'4 8.9
2017-Jul-17 02:30N 26°16' W 079°12'72 1.6
2017-Jul-15 07:00N 26°00' W 077°54'7013.9 220 / 111017.910.8 28.022.429.0
2017-Jul-15 01:55N 26°17' W 079°10'512.0
2017-Jul-15 01:30N 26°14' W 079°15'612.0
2017-Jul-15 01:00N 26°10' W 079°21'612.1
2017-Jul-15 00:30N 26°07' W 079°26'612.9
2017-Jul-15 00:00N 26°04' W 079°32'713.4
2017-Jul-14 23:30N 26°00' W 079°39'713.6
2017-Jul-14 23:00N 25°56' W 079°44'714.3
2017-Jul-14 22:31N 25°52' W 079°51'713.9
2017-Jul-14 22:00N 25°49' W 079°58'612.0
2017-Jul-14 21:30N 25°47' W 080°04'4 9.0
2017-Jul-14 21:01N 25°46' W 080°09'1 1.9
2017-Jul-14 20:30N 25°47' W 080°10'0 0.1
2017-Jul-14 19:54N 25°47' W 080°10'0 0.0
2017-Jul-14 19:27N 25°47' W 080°10'0 0.0
2017-Jul-14 18:57N 25°47' W 080°10'0 0.0
2017-Jul-14 18:30N 25°47' W 080°10'0 0.0
2017-Jul-14 17:57N 25°47' W 080°10'0 0.0
2017-Jul-14 17:30N 25°47' W 080°10'0 0.0
2017-Jul-14 17:00N 25°47' W 080°10'0 0.0
2017-Jul-14 16:27N 25°47' W 080°10'0 0.0
2017-Jul-14 16:00N 25°47' W 080°10'0 0.0
2017-Jul-14 15:30N 25°47' W 080°10'0 0.0
2017-Jul-14 15:00N 25°47' W 080°10'0 0.0
2017-Jul-14 14:30N 25°47' W 080°10'0 0.0
2017-Jul-14 14:00N 25°47' W 080°10'0 0.0
2017-Jul-14 13:30N 25°47' W 080°10'0 0.0
2017-Jul-14 13:00N 25°47' W 080°10'0 0.0
2017-Jul-14 12:30N 25°47' W 080°10'0 0.0
2017-Jul-14 12:00N 25°47' W 080°10'0 0.0
2017-Jul-14 11:30N 25°47' W 080°10'0 0.0
2017-Jul-14 11:00N 25°47' W 080°10'0 0.5
2017-Jul-14 10:31N 25°47' W 080°10'4 7.9
2017-Jul-14 10:01N 25°46' W 080°06'510.2
2017-Jul-14 09:30N 25°46' W 080°00'510.4
2017-Jul-14 09:01N 25°42' W 079°56'815.4
2017-Jul-14 08:30N 25°35' W 079°55'816.2
2017-Jul-14 08:01N 25°27' W 079°54'815.6
2017-Jul-14 07:30N 25°19' W 079°56'1325.3
2017-Jul-14 07:00N 25°06' W 079°54'   150 / 291017.610.8 28.624.030.0
Track history (hours):
 
Tides and Currents Weather Stations Pressure Air Temp Water Temp Dewpoint Dewpoint Depression Visibility Wind Speed Wind Dir Waves Ship Positions

Carnival Victory

Operator: Carnival Cruise Lines

Last reported at 2017-Jul-24 02:30 UTC. Time now 2017-Jul-24 02:32 UTC.
Position N 26°15' W 079°12'.

Type: Passenger vessel. MMSI: 355263000.

Date/timePositionNaut miles runAvg speedWind from/ knotsBaromVisibWave heightAir tempDewpointWater temp
2017-Jul-24 02:30N 26°15' W 079°12'108 2.7
2017-Jul-22 11:00N 25°30' W 077°24'8111.1 290 / 201018.9 5.4 28.023.929.0
2017-Jul-22 03:42N 26°13' W 078°41'213.2
2017-Jul-22 03:30N 26°13' W 078°43'713.8
2017-Jul-22 03:00N 26°15' W 078°51'713.7
2017-Jul-22 02:30N 26°17' W 078°58'713.5
2017-Jul-22 02:00N 26°18' W 079°06'713.3
2017-Jul-22 01:30N 26°15' W 079°12'713.7
2017-Jul-22 01:00N 26°12' W 079°19'713.9
2017-Jul-22 00:30N 26°08' W 079°25'714.4
2017-Jul-22 00:00N 26°04' W 079°32'714.2
2017-Jul-21 23:30N 25°60' W 079°38'713.8
2017-Jul-21 23:00N 25°56' W 079°45'714.2
2017-Jul-21 22:30N 25°53' W 079°52'714.6
2017-Jul-21 22:01N 25°49' W 079°59'612.0
2017-Jul-21 21:30N 25°46' W 080°05'5 9.0
2017-Jul-21 21:00N 25°46' W 080°10'1 1.1
2017-Jul-21 20:30N 25°47' W 080°10'0 0.0
2017-Jul-21 20:00N 25°47' W 080°10'0 0.0
2017-Jul-21 19:30N 25°47' W 080°10'0 0.0
2017-Jul-21 19:00N 25°47' W 080°10'0 0.0
2017-Jul-21 18:30N 25°47' W 080°10'0 0.0
2017-Jul-21 18:00N 25°47' W 080°10'0 0.0
2017-Jul-21 17:30N 25°47' W 080°10'0 0.0
2017-Jul-21 16:54N 25°47' W 080°10'0 0.0
2017-Jul-21 16:30N 25°47' W 080°10'0 0.0
2017-Jul-21 15:54N 25°47' W 080°10'0 0.0
2017-Jul-21 15:30N 25°47' W 080°10'0 0.0
2017-Jul-21 14:54N 25°47' W 080°10'0 0.0
2017-Jul-21 14:30N 25°47' W 080°10'0 0.0
2017-Jul-21 14:00N 25°47' W 080°10'0 0.0
2017-Jul-21 13:30N 25°47' W 080°10'0 0.0
2017-Jul-21 13:00N 25°47' W 080°10'0 0.0
2017-Jul-21 12:30N 25°47' W 080°10'0 0.0
2017-Jul-21 11:57N 25°47' W 080°10'0 0.0
2017-Jul-21 11:30N 25°47' W 080°10'0 0.0
2017-Jul-21 10:57N 25°47' W 080°10'1 1.2
2017-Jul-21 10:30N 25°46' W 080°10'4 8.7
2017-Jul-21 10:00N 25°46' W 080°05'5 9.9
2017-Jul-21 09:31N 25°46' W 079°59'611.9
2017-Jul-21 09:00N 25°41' W 079°56'816.3
2017-Jul-21 08:30N 25°33' W 079°55'816.5
2017-Jul-21 08:00N 25°24' W 079°55'714.6
2017-Jul-21 07:30N 25°17' W 079°56'33916.5
2017-Jul-20 11:00N 22°12' W 085°06'13417.5 180 / 181017.610.8 29.025.030.0
2017-Jul-20 03:19N 20°42' W 086°53'617.9
2017-Jul-20 03:00N 20°38' W 086°57'815.6
2017-Jul-20 02:31N 20°30' W 086°59'2 3.3
2017-Jul-20 01:57N 20°29' W 086°59'0 0.0
2017-Jul-20 01:30N 20°29' W 086°59'0 0.0
2017-Jul-20 01:00N 20°29' W 086°59'0 0.0
2017-Jul-20 00:27N 20°29' W 086°59'0 0.0
2017-Jul-20 00:00N 20°29' W 086°59'0 0.0
2017-Jul-19 23:30N 20°29' W 086°59'0 0.0
2017-Jul-19 23:00N 20°29' W 086°59'0 0.0
2017-Jul-19 22:30N 20°29' W 086°59'0 0.0
2017-Jul-19 22:00N 20°29' W 086°59'0 0.0
2017-Jul-19 21:30N 20°29' W 086°59'0 0.0
2017-Jul-19 21:00N 20°29' W 086°59'0 0.0
2017-Jul-19 20:30N 20°29' W 086°59'0 0.0
2017-Jul-19 20:00N 20°29' W 086°59'0 0.0
2017-Jul-19 19:30N 20°29' W 086°59'0 0.0
2017-Jul-19 19:00N 20°29' W 086°59'0 0.0
2017-Jul-19 18:30N 20°29' W 086°59'0 0.0
2017-Jul-19 18:00N 20°29' W 086°59'0 0.0
2017-Jul-19 17:30N 20°29' W 086°59'0 0.0
2017-Jul-19 17:00N 20°29' W 086°59'0 0.0
2017-Jul-19 16:30N 20°29' W 086°59'0 0.0
2017-Jul-19 16:00N 20°29' W 086°59'0 0.0
2017-Jul-19 15:30N 20°29' W 086°59'1 2.4
2017-Jul-19 15:00N 20°30' W 086°59'4 7.7
2017-Jul-19 14:30N 20°33' W 087°00'6819.5
2017-Jul-19 11:00N 21°12' W 086°00'8216.4 340 / 181016.310.8 29.025.030.0
2017-Jul-19 06:00N 22°12' W 085°00'33311.3 350 / 171018.010.8 28.523.731.0
2017-Jul-18 00:35N 25°09' W 079°52'112.7
2017-Jul-18 00:29N 25°10' W 079°52'612.9
2017-Jul-18 00:00N 25°16' W 079°48'612.9
2017-Jul-17 23:30N 25°22' W 079°48'612.9
2017-Jul-17 23:00N 25°28' W 079°47'612.8
2017-Jul-17 22:30N 25°35' W 079°47'713.6
2017-Jul-17 22:00N 25°39' W 079°53'714.3
2017-Jul-17 21:30N 25°43' W 079°59'611.2
2017-Jul-17 21:00N 25°46' W 080°05'5 9.2
2017-Jul-17 20:30N 25°47' W 080°10'0 0.2
2017-Jul-17 19:59N 25°47' W 080°10'0 0.0
2017-Jul-17 19:29N 25°47' W 080°10'0 0.0
2017-Jul-17 18:59N 25°47' W 080°10'0 0.0
2017-Jul-17 18:29N 25°47' W 080°10'0 0.0
2017-Jul-17 17:59N 25°47' W 080°10'0 0.0
2017-Jul-17 17:29N 25°47' W 080°10'0 0.0
2017-Jul-17 16:59N 25°47' W 080°10'0 0.0
2017-Jul-17 16:26N 25°47' W 080°10'0 0.0
2017-Jul-17 15:53N 25°47' W 080°10'0 0.0
2017-Jul-17 15:29N 25°47' W 080°10'0 0.0
2017-Jul-17 14:56N 25°47' W 080°10'0 0.0
2017-Jul-17 14:29N 25°47' W 080°10'0 0.0
2017-Jul-17 13:53N 25°47' W 080°10'0 0.0
2017-Jul-17 13:23N 25°47' W 080°10'0 0.0
2017-Jul-17 12:56N 25°47' W 080°10'0 0.0
2017-Jul-17 12:29N 25°47' W 080°10'0 0.0
2017-Jul-17 11:56N 25°47' W 080°10'0 0.0
2017-Jul-17 11:26N 25°47' W 080°10'0 0.0
2017-Jul-17 10:56N 25°47' W 080°10'0 0.7
2017-Jul-17 10:30N 25°47' W 080°10'1 1.9
2017-Jul-17 10:00N 25°46' W 080°09'5 9.3
2017-Jul-17 09:30N 25°46' W 080°04'4 8.4
2017-Jul-17 09:00N 25°48' W 080°00'4 7.5
2017-Jul-17 08:30N 25°50' W 079°57'4 8.7
2017-Jul-17 08:00N 25°52' W 079°52'4 8.3
2017-Jul-17 07:30N 25°55' W 079°49'4 7.8
2017-Jul-17 07:00N 25°57' W 079°45'4 8.0
2017-Jul-17 06:30N 25°58' W 079°41'4 7.4
2017-Jul-17 06:00N 26°01' W 079°38'3 6.9
2017-Jul-17 05:30N 26°03' W 079°35'4 7.5
2017-Jul-17 05:00N 26°05' W 079°31'4 7.5
2017-Jul-17 04:30N 26°07' W 079°28'4 7.8
2017-Jul-17 04:00N 26°09' W 079°24'4 8.4
2017-Jul-17 03:30N 26°11' W 079°20'4 8.6
2017-Jul-17 03:00N 26°13' W 079°16'4 8.9
2017-Jul-17 02:30N 26°16' W 079°12'72 1.6
2017-Jul-15 07:00N 26°00' W 077°54'7013.9 220 / 111017.910.8 28.022.429.0
2017-Jul-15 01:55N 26°17' W 079°10'512.0
2017-Jul-15 01:30N 26°14' W 079°15'612.0
2017-Jul-15 01:00N 26°10' W 079°21'612.1
2017-Jul-15 00:30N 26°07' W 079°26'612.9
2017-Jul-15 00:00N 26°04' W 079°32'713.4
2017-Jul-14 23:30N 26°00' W 079°39'713.6
2017-Jul-14 23:00N 25°56' W 079°44'714.3
2017-Jul-14 22:31N 25°52' W 079°51'713.9
2017-Jul-14 22:00N 25°49' W 079°58'612.0
2017-Jul-14 21:30N 25°47' W 080°04'4 9.0
2017-Jul-14 21:01N 25°46' W 080°09'1 1.9
2017-Jul-14 20:30N 25°47' W 080°10'0 0.1
2017-Jul-14 19:54N 25°47' W 080°10'0 0.0
2017-Jul-14 19:27N 25°47' W 080°10'0 0.0
2017-Jul-14 18:57N 25°47' W 080°10'0 0.0
2017-Jul-14 18:30N 25°47' W 080°10'0 0.0
2017-Jul-14 17:57N 25°47' W 080°10'0 0.0
2017-Jul-14 17:30N 25°47' W 080°10'0 0.0
2017-Jul-14 17:00N 25°47' W 080°10'0 0.0
2017-Jul-14 16:27N 25°47' W 080°10'0 0.0
2017-Jul-14 16:00N 25°47' W 080°10'0 0.0
2017-Jul-14 15:30N 25°47' W 080°10'0 0.0
2017-Jul-14 15:00N 25°47' W 080°10'0 0.0
2017-Jul-14 14:30N 25°47' W 080°10'0 0.0
2017-Jul-14 14:00N 25°47' W 080°10'0 0.0
2017-Jul-14 13:30N 25°47' W 080°10'0 0.0
2017-Jul-14 13:00N 25°47' W 080°10'0 0.0
2017-Jul-14 12:30N 25°47' W 080°10'0 0.0
2017-Jul-14 12:00N 25°47' W 080°10'0 0.0
2017-Jul-14 11:30N 25°47' W 080°10'0 0.0
2017-Jul-14 11:00N 25°47' W 080°10'0 0.5
2017-Jul-14 10:31N 25°47' W 080°10'4 7.9
2017-Jul-14 10:01N 25°46' W 080°06'510.2
2017-Jul-14 09:30N 25°46' W 080°00'510.4
2017-Jul-14 09:01N 25°42' W 079°56'815.4
2017-Jul-14 08:30N 25°35' W 079°55'816.2
2017-Jul-14 08:01N 25°27' W 079°54'815.6
2017-Jul-14 07:30N 25°19' W 079°56'1325.3
2017-Jul-14 07:00N 25°06' W 079°54'   150 / 291017.610.8 28.624.030.0

Dump ship's entire track history